Time;durP1;ratioP1;P1;durP2;ratioP2;P2;SDS_P1;SDS_P2;PMS_P1;PMS_P2;Temp;Humidity;BMP_temperature;BMP_pressure;BME280_temperature;BME280_humidity;BME280_pressure;Samples;Min_cycle;Max_cycle;Signal;HPM_P1;HPM_P2
2022/10/23 00:00:46;;;;;;;80.07;27.90;;;13.40;99.90;;;;;;5118225;28;20148;-82
2022/10/23 00:03:12;;;;;;;82.30;26.97;;;13.40;99.90;;;;;;5117735;28;20246;-82
2022/10/23 00:05:40;;;;;;;78.90;28.00;;;13.30;99.90;;;;;;5117434;28;20156;-81
2022/10/23 00:08:06;;;;;;;82.63;31.23;;;13.30;99.90;;;;;;5117817;28;20435;-82
2022/10/23 00:10:33;;;;;;;85.43;30.80;;;13.30;99.90;;;;;;5117526;28;20401;-82
2022/10/23 00:12:58;;;;;;;79.37;28.03;;;13.30;99.90;;;;;;5117857;28;20385;-82
2022/10/23 00:15:26;;;;;;;77.97;26.40;;;13.30;99.90;;;;;;5117476;28;20550;-82
2022/10/23 00:17:52;;;;;;;79.07;26.93;;;13.20;99.90;;;;;;5117701;28;20191;-82
2022/10/23 00:20:18;;;;;;;79.47;25.83;;;13.20;99.90;;;;;;5116788;28;20463;-81
2022/10/23 00:22:43;;;;;;;79.57;26.93;;;13.30;99.90;;;;;;5117275;28;20400;-82
2022/10/23 00:25:09;;;;;;;82.50;31.70;;;13.30;99.90;;;;;;5117820;28;20412;-82
2022/10/23 00:27:35;;;;;;;80.70;28.73;;;13.20;99.90;;;;;;5117672;28;20190;-81
2022/10/23 00:30:02;;;;;;;86.20;27.80;;;13.30;99.90;;;;;;5117023;28;20429;-82
2022/10/23 00:32:28;;;;;;;78.43;25.10;;;13.40;99.90;;;;;;5116964;28;20163;-82
2022/10/23 00:34:53;;;;;;;86.17;23.43;;;13.30;99.90;;;;;;5116455;28;20487;-82
2022/10/23 00:37:19;;;;;;;78.90;22.23;;;13.30;99.90;;;;;;5116679;28;20198;-82
2022/10/23 00:39:45;;;;;;;75.70;23.10;;;13.20;99.90;;;;;;5116509;28;20183;-82
2022/10/23 00:42:19;;;;;;;80.97;19.40;;;13.30;99.90;;;;;;5116934;28;20390;-82
2022/10/23 00:44:44;;;;;;;72.60;15.80;;;13.30;99.90;;;;;;5115362;28;20169;-82
2022/10/23 00:47:12;;;;;;;76.43;15.27;;;13.30;99.90;;;;;;5117622;28;20429;-82
2022/10/23 00:49:38;;;;;;;75.23;16.53;;;13.30;99.90;;;;;;5117333;28;20190;-82
2022/10/23 00:52:07;;;;;;;77.13;15.77;;;13.30;99.90;;;;;;5115939;28;20408;-82
2022/10/23 00:54:36;;;;;;;78.13;16.37;;;13.40;99.90;;;;;;5116220;28;20431;-82
2022/10/23 00:57:05;;;;;;;74.37;13.33;;;13.30;99.90;;;;;;5114405;28;20449;-82
2022/10/23 00:59:32;;;;;;;77.87;12.40;;;13.30;99.90;;;;;;5114922;28;20432;-82
2022/10/23 01:01:59;;;;;;;76.07;14.27;;;13.20;99.90;;;;;;5115629;28;20401;-82
2022/10/23 01:04:26;;;;;;;79.17;15.67;;;13.10;99.90;;;;;;5115039;28;20401;-82
2022/10/23 01:07:17;;;;;;;75.77;17.53;;;13.10;99.90;;;;;;5115191;28;20397;-82
2022/10/23 01:10:09;;;;;;;77.50;15.80;;;13.20;99.90;;;;;;5115419;28;20449;-81
2022/10/23 01:13:03;;;;;;;73.80;17.07;;;13.20;99.90;;;;;;5115070;28;20401;-82
2022/10/23 01:16:08;;;;;;;77.70;14.10;;;13.20;99.90;;;;;;5114898;28;20485;-82
2022/10/23 01:18:51;;;;;;;74.93;12.50;;;13.30;99.90;;;;;;5103505;28;20476;-82
2022/10/23 01:21:33;;;;;;;77.97;14.93;;;13.30;99.90;;;;;;5114437;28;20397;-82
2022/10/23 01:24:31;;;;;;;80.40;14.20;;;13.30;99.90;;;;;;5114835;28;20392;-82
2022/10/23 01:26:56;;;;;;;74.57;16.17;;;13.10;99.90;;;;;;5101014;28;20437;-82
2022/10/23 01:29:45;;;;;;;80.20;20.30;;;13.10;99.90;;;;;;5115134;28;20420;-82
2022/10/23 01:32:10;;;;;;;77.77;19.80;;;13.00;99.90;;;;;;5115413;28;20152;-82
2022/10/23 01:34:50;;;;;;;77.10;22.60;;;13.10;99.90;;;;;;5113776;28;20920;-82
2022/10/23 01:37:24;;;;;;;78.13;24.53;;;13.00;99.90;;;;;;5112280;28;20217;-82
2022/10/23 01:39:54;;;;;;;79.80;22.07;;;13.00;99.90;;;;;;5113562;28;20432;-82
2022/10/23 01:42:24;;;;;;;83.40;27.63;;;12.90;99.90;;;;;;5114827;28;20392;-82
2022/10/23 01:45:12;;;;;;;81.37;26.17;;;13.00;99.90;;;;;;5114212;28;20885;-82
2022/10/23 01:47:38;;;;;;;79.50;27.77;;;12.90;99.90;;;;;;5114686;28;20456;-82
2022/10/23 01:50:06;;;;;;;84.47;27.80;;;12.80;99.90;;;;;;5114295;28;20417;-82
2022/10/23 01:52:32;;;;;;;76.50;25.93;;;12.80;99.90;;;;;;5114710;28;20413;-82
2022/10/23 01:54:59;;;;;;;81.53;24.63;;;12.80;99.90;;;;;;5115465;28;20498;-82
2022/10/23 01:57:28;;;;;;;81.63;27.13;;;12.80;99.90;;;;;;5114857;28;20209;-82
2022/10/23 02:00:04;;;;;;;73.88;22.60;;;12.80;99.90;;;;;;5114451;28;20421;-82
2022/10/23 02:02:35;;;;;;;76.07;21.77;;;12.80;99.90;;;;;;5114205;28;20259;-82
2022/10/23 02:05:25;;;;;;;76.20;21.10;;;12.80;99.90;;;;;;5114576;28;20381;-82
2022/10/23 02:07:51;;;;;;;78.40;19.10;;;12.70;99.90;;;;;;5113975;28;20381;-81
2022/10/23 02:10:18;;;;;;;76.27;19.00;;;12.80;99.90;;;;;;5113453;28;20472;-82
2022/10/23 02:12:59;;;;;;;76.27;18.30;;;12.80;99.90;;;;;;5114761;28;20428;-82
2022/10/23 02:15:36;;;;;;;73.90;16.07;;;12.80;99.90;;;;;;5114165;28;20484;-82
2022/10/23 02:18:08;;;;;;;74.90;17.50;;;12.80;99.90;;;;;;5113846;28;20485;-82
2022/10/23 02:20:44;;;;;;;77.70;17.30;;;12.90;99.90;;;;;;5113918;28;20417;-81
2022/10/23 02:23:20;;;;;;;76.77;18.10;;;12.90;99.90;;;;;;5114102;28;20385;-81
2022/10/23 02:25:58;;;;;;;76.30;17.30;;;12.90;99.90;;;;;;5114227;28;20382;-81
2022/10/23 02:28:31;;;;;;;73.43;18.37;;;12.80;99.90;;;;;;5113069;28;20452;-81
2022/10/23 02:30:59;;;;;;;78.20;20.52;;;12.80;99.90;;;;;;5114048;28;20382;-82
2022/10/23 02:33:26;;;;;;;74.35;15.55;;;12.80;99.90;;;;;;5114095;28;20190;-82
2022/10/23 02:35:52;;;;;;;74.70;14.33;;;12.90;99.90;;;;;;5114978;28;20166;-82
2022/10/23 02:38:47;;;;;;;72.87;15.20;;;12.90;99.90;;;;;;5114720;28;20453;-82
2022/10/23 02:41:35;;;;;;;80.20;16.40;;;12.90;99.90;;;;;;5101550;28;20182;-82
2022/10/23 02:44:14;;;;;;;73.00;16.13;;;13.00;99.90;;;;;;5115020;28;20475;-82
2022/10/23 02:46:59;;;;;;;72.10;16.00;;;13.00;99.90;;;;;;5115034;28;20385;-82
2022/10/23 02:50:03;;;;;;;73.10;17.30;;;13.00;99.90;;;;;;5114646;28;20205;-82
2022/10/23 02:52:59;;;;;;;73.30;17.50;;;13.00;99.90;;;;;;5114073;28;20427;-82
2022/10/23 02:55:31;;;;;;;72.93;15.37;;;13.00;99.90;;;;;;5114635;28;20385;-82
2022/10/23 02:58:34;;;;;;;77.90;16.87;;;12.90;99.90;;;;;;5115201;28;20437;-82
2022/10/23 03:01:09;;;;;;;75.73;15.67;;;13.00;99.90;;;;;;5114315;28;20397;-82
2022/10/23 03:03:40;;;;;;;71.40;14.80;;;13.00;99.90;;;;;;5114807;28;20402;-82
2022/10/23 03:06:07;;;;;;;75.53;14.10;;;12.90;99.90;;;;;;5114600;28;20362;-82
2022/10/23 03:08:52;;;;;;;77.57;18.17;;;12.90;99.90;;;;;;5114752;28;20425;-82
2022/10/23 03:11:18;;;;;;;75.63;15.63;;;12.90;99.90;;;;;;5114653;28;20409;-82
2022/10/23 03:13:44;;;;;;;75.73;14.87;;;12.90;99.90;;;;;;5114530;28;20398;-82
2022/10/23 03:16:09;;;;;;;77.40;16.67;;;12.90;99.90;;;;;;5114292;28;20504;-82
2022/10/23 03:18:35;;;;;;;73.53;16.27;;;12.90;99.90;;;;;;5114059;28;20224;-82
2022/10/23 03:21:01;;;;;;;75.27;20.40;;;12.90;99.90;;;;;;5113813;28;20158;-82
2022/10/23 03:23:27;;;;;;;73.23;22.23;;;12.90;99.90;;;;;;5114824;28;20167;-82
2022/10/23 03:25:53;;;;;;;80.50;27.33;;;12.90;99.90;;;;;;5114176;28;20183;-82
2022/10/23 03:28:19;;;;;;;74.97;21.27;;;13.00;99.90;;;;;;5114573;28;20177;-82
2022/10/23 03:30:44;;;;;;;73.47;17.63;;;13.00;99.90;;;;;;5113850;28;20401;-82
2022/10/23 03:33:10;;;;;;;72.30;16.07;;;13.00;99.90;;;;;;5114043;28;20427;-82
2022/10/23 03:35:36;;;;;;;85.00;16.53;;;13.10;99.90;;;;;;5114633;28;20409;-82
2022/10/23 03:38:02;;;;;;;73.80;12.63;;;13.10;99.90;;;;;;5113899;28;20210;-82
2022/10/23 03:40:27;;;;;;;73.87;14.37;;;13.20;99.90;;;;;;5114386;28;20147;-82
2022/10/23 03:42:53;;;;;;;77.47;14.90;;;13.20;99.90;;;;;;5114142;28;20423;-82
2022/10/23 03:45:19;;;;;;;76.53;17.17;;;13.20;99.90;;;;;;5114402;28;20160;-82
2022/10/23 03:47:49;;;;;;;77.00;19.33;;;13.20;99.90;;;;;;5114306;28;20191;-82
2022/10/23 03:50:18;;;;;;;71.17;14.70;;;13.10;99.90;;;;;;5113989;28;20179;-82
2022/10/23 03:52:44;;;;;;;72.83;14.50;;;13.00;99.90;;;;;;5114031;28;20401;-82
2022/10/23 03:55:11;;;;;;;72.43;13.50;;;13.00;99.90;;;;;;5114286;28;20405;-82
2022/10/23 03:57:37;;;;;;;72.68;14.50;;;13.00;99.90;;;;;;5113847;28;20445;-82
2022/10/23 04:00:04;;;;;;;78.93;15.67;;;13.00;99.90;;;;;;5113413;28;20246;-82
2022/10/23 04:02:30;;;;;;;79.00;17.37;;;13.00;99.90;;;;;;5113731;28;20402;-82
2022/10/23 04:04:56;;;;;;;78.57;16.13;;;12.90;99.90;;;;;;5113846;28;20400;-82
2022/10/23 04:07:21;;;;;;;72.07;15.43;;;13.00;99.90;;;;;;5113493;28;20397;-82
2022/10/23 04:09:47;;;;;;;75.40;15.20;;;12.90;99.90;;;;;;5113929;28;20187;-82
2022/10/23 04:12:13;;;;;;;82.57;13.70;;;12.90;99.90;;;;;;5112725;28;20167;-82
2022/10/23 04:14:38;;;;;;;72.40;15.00;;;12.90;99.90;;;;;;5113116;28;20226;-82
2022/10/23 04:17:04;;;;;;;76.97;17.00;;;12.80;99.90;;;;;;5113468;28;20312;-82
2022/10/23 04:19:30;;;;;;;72.80;14.10;;;12.90;99.90;;;;;;5111792;28;20199;-82
2022/10/23 04:21:57;;;;;;;71.88;13.15;;;12.90;99.90;;;;;;5113513;28;20185;-82
2022/10/23 04:24:26;;;;;;;78.60;16.07;;;12.90;99.90;;;;;;5113010;28;20170;-82
2022/10/23 04:26:52;;;;;;;73.47;17.83;;;12.80;99.90;;;;;;5112919;28;20431;-82
2022/10/23 04:29:20;;;;;;;73.83;20.87;;;12.80;99.90;;;;;;5110221;28;20397;-82
2022/10/23 04:31:45;;;;;;;75.03;23.05;;;12.80;99.90;;;;;;5113279;28;20405;-82
2022/10/23 04:34:11;;;;;;;77.20;31.47;;;12.80;99.90;;;;;;5113254;28;20168;-82
2022/10/23 04:36:37;;;;;;;81.80;25.60;;;12.80;99.90;;;;;;5113723;28;20194;-81
2022/10/23 04:39:02;;;;;;;79.83;30.53;;;12.80;99.90;;;;;;5112822;28;20243;-82
2022/10/23 04:41:28;;;;;;;77.07;25.20;;;12.80;99.90;;;;;;5112823;28;20163;-82
2022/10/23 04:43:54;;;;;;;79.00;30.33;;;12.80;99.90;;;;;;5115473;28;20389;-82
2022/10/23 04:46:19;;;;;;;81.57;30.30;;;12.80;99.90;;;;;;5116532;28;20155;-82
2022/10/23 04:48:45;;;;;;;78.27;30.90;;;12.80;99.90;;;;;;5115919;28;20183;-82
2022/10/23 04:51:11;;;;;;;77.83;29.67;;;12.80;99.90;;;;;;5116408;28;20167;-82
2022/10/23 04:53:37;;;;;;;84.00;29.33;;;12.80;99.90;;;;;;5116473;28;20185;-82
2022/10/23 04:56:04;;;;;;;79.37;31.30;;;12.80;99.90;;;;;;5116587;28;20397;-82
2022/10/23 04:58:30;;;;;;;78.13;28.50;;;12.90;99.90;;;;;;5116382;28;20516;-82
2022/10/23 05:00:56;;;;;;;78.37;32.50;;;12.90;99.90;;;;;;5116173;28;20398;-82
2022/10/23 05:03:23;;;;;;;79.72;30.85;;;12.90;99.90;;;;;;5115400;28;20163;-82
2022/10/23 05:05:53;;;;;;;80.13;29.38;;;12.90;99.90;;;;;;5116138;28;20163;-82
2022/10/23 05:08:19;;;;;;;79.03;28.13;;;12.90;99.90;;;;;;5115489;28;20209;-82
2022/10/23 05:10:46;;;;;;;78.80;29.10;;;12.90;99.90;;;;;;5115570;28;20503;-82
2022/10/23 05:13:11;;;;;;;77.25;31.23;;;12.80;99.90;;;;;;5115187;28;20167;-82
2022/10/23 05:15:37;;;;;;;79.83;32.80;;;12.90;99.90;;;;;;5116191;28;20534;-82
2022/10/23 05:20:38;;;;;;;79.10;31.17;;;12.90;99.90;;;;;;5162924;22;20230;-85
2022/10/23 05:23:08;;;;;;;78.77;26.73;;;12.90;99.90;;;;;;5107411;28;20390;-85
2022/10/23 05:25:35;;;;;;;82.80;31.23;;;12.90;99.90;;;;;;5106456;28;20447;-85
2022/10/23 05:28:00;;;;;;;82.47;33.60;;;12.90;99.90;;;;;;5106877;28;20392;-85
2022/10/23 05:30:26;;;;;;;82.00;31.53;;;12.90;99.90;;;;;;5106993;28;20398;-85
2022/10/23 05:32:53;;;;;;;79.80;27.50;;;12.90;99.90;;;;;;5106509;28;20176;-85
2022/10/23 05:35:22;;;;;;;84.95;28.17;;;12.90;99.90;;;;;;5107083;28;20760;-85
2022/10/23 05:37:49;;;;;;;76.78;30.75;;;12.90;99.90;;;;;;5104452;28;20191;-85
2022/10/23 05:40:16;;;;;;;76.37;26.63;;;12.80;99.90;;;;;;5106141;28;20183;-85
2022/10/23 05:42:42;;;;;;;77.47;30.30;;;12.80;99.90;;;;;;5105098;28;20407;-85
2022/10/23 05:45:08;;;;;;;76.97;28.00;;;12.80;99.90;;;;;;5105793;28;20398;-84
2022/10/23 05:47:34;;;;;;;76.95;25.63;;;12.80;99.90;;;;;;5105363;28;20398;-85
2022/10/23 05:49:59;;;;;;;80.20;24.70;;;12.80;99.90;;;;;;5104826;28;20198;-85
2022/10/23 05:52:25;;;;;;;74.50;24.80;;;12.80;99.90;;;;;;5104413;28;20167;-85
2022/10/23 05:54:51;;;;;;;75.23;24.80;;;12.80;99.90;;;;;;5102998;28;20168;-85
2022/10/23 05:57:17;;;;;;;79.27;27.87;;;12.80;99.90;;;;;;5103702;28;20191;-85
2022/10/23 05:59:43;;;;;;;77.60;26.23;;;12.80;99.90;;;;;;5103871;28;20464;-84
2022/10/23 06:02:09;;;;;;;77.47;26.47;;;12.80;99.90;;;;;;5104003;28;20397;-85
2022/10/23 06:04:34;;;;;;;77.13;24.70;;;12.80;99.90;;;;;;5104215;28;20163;-84
2022/10/23 06:07:01;;;;;;;84.30;27.77;;;12.80;99.90;;;;;;5104105;28;20159;-84
2022/10/23 06:09:26;;;;;;;75.38;27.80;;;12.80;99.90;;;;;;5102764;28;20187;-85
2022/10/23 06:11:52;;;;;;;77.07;24.00;;;12.80;99.90;;;;;;5102784;28;20170;-84
2022/10/23 06:14:18;;;;;;;76.87;25.17;;;12.80;99.90;;;;;;5102396;28;20201;-85
2022/10/23 06:16:44;;;;;;;81.43;27.73;;;12.80;99.90;;;;;;5105532;28;20217;-84
2022/10/23 06:19:12;;;;;;;77.70;32.27;;;12.80;99.90;;;;;;5102516;28;20198;-84
2022/10/23 06:21:39;;;;;;;76.28;28.25;;;12.80;99.90;;;;;;5102996;28;20187;-84
2022/10/23 06:24:07;;;;;;;80.28;30.73;;;12.80;99.90;;;;;;5104048;28;20242;-85
2022/10/23 06:26:33;;;;;;;76.60;25.33;;;12.80;99.90;;;;;;5103220;28;20170;-84
2022/10/23 06:28:59;;;;;;;76.47;26.93;;;12.90;99.90;;;;;;5103150;28;20420;-84
2022/10/23 06:31:27;;;;;;;74.88;26.77;;;12.90;99.90;;;;;;5102547;28;20189;-85
2022/10/23 06:33:53;;;;;;;79.20;26.17;;;12.90;99.90;;;;;;5100168;28;20163;-86
2022/10/23 06:36:19;;;;;;;80.83;25.67;;;12.90;99.90;;;;;;5100261;28;20163;-85
2022/10/23 06:38:45;;;;;;;76.20;24.47;;;13.00;99.90;;;;;;5098993;28;20504;-85
2022/10/23 06:41:13;;;;;;;85.10;25.57;;;13.00;99.90;;;;;;5100850;28;20166;-85
2022/10/23 06:43:39;;;;;;;80.65;24.20;;;13.00;99.90;;;;;;5098718;28;20194;-85
2022/10/23 06:46:05;;;;;;;74.57;23.30;;;13.00;99.90;;;;;;5099391;28;20159;-85
2022/10/23 06:48:31;;;;;;;72.90;20.43;;;13.10;99.90;;;;;;5096954;28;20558;-86
2022/10/23 06:50:57;;;;;;;74.97;21.02;;;13.10;99.90;;;;;;5099029;28;20163;-86
2022/10/23 06:53:23;;;;;;;73.10;25.10;;;13.20;99.90;;;;;;5098726;28;20194;-85
2022/10/23 06:55:50;;;;;;;74.40;21.70;;;13.20;99.90;;;;;;5098670;28;20400;-85
2022/10/23 06:58:19;;;;;;;77.35;23.58;;;13.20;99.90;;;;;;5098815;28;20226;-86
2022/10/23 07:00:44;;;;;;;74.23;23.20;;;13.20;99.90;;;;;;5097949;28;20170;-84
2022/10/23 07:03:10;;;;;;;83.33;24.10;;;13.30;99.90;;;;;;5103856;28;20405;-86
2022/10/23 07:05:36;;;;;;;73.27;24.20;;;13.30;99.90;;;;;;5101208;28;20163;-85
2022/10/23 07:08:04;;;;;;;76.03;25.37;;;13.30;99.90;;;;;;5102803;28;20163;-86
2022/10/23 07:10:30;;;;;;;79.03;26.10;;;13.30;99.90;;;;;;5100816;28;20252;-86
2022/10/23 07:12:59;;;;;;;78.67;25.17;;;13.30;99.90;;;;;;5102080;28;20210;-86
2022/10/23 07:15:26;;;;;;;76.90;26.17;;;13.30;99.90;;;;;;5099551;28;20171;-86
2022/10/23 07:17:52;;;;;;;73.72;24.55;;;13.40;99.90;;;;;;5100083;28;20198;-86
2022/10/23 07:20:18;;;;;;;75.82;24.50;;;13.40;99.90;;;;;;5100962;28;20217;-85
2022/10/23 07:22:49;;;;;;;77.87;26.53;;;13.40;99.90;;;;;;5101494;28;20164;-85
2022/10/23 07:25:14;;;;;;;76.20;27.40;;;13.40;99.90;;;;;;5099991;28;20179;-86
2022/10/23 07:27:40;;;;;;;75.80;27.73;;;13.40;99.90;;;;;;5100570;28;20414;-86
2022/10/23 07:30:06;;;;;;;77.87;26.83;;;13.50;99.90;;;;;;5099963;28;20685;-86
2022/10/23 07:32:32;;;;;;;77.13;25.90;;;13.40;99.90;;;;;;5100484;28;20167;-86
2022/10/23 07:35:01;;;;;;;86.93;21.97;;;13.50;99.90;;;;;;5099155;28;20416;-86
2022/10/23 07:37:28;;;;;;;74.80;22.80;;;13.50;99.90;;;;;;5099472;28;20264;-85
2022/10/23 07:39:54;;;;;;;76.20;26.40;;;13.60;99.90;;;;;;5097493;28;20438;-86
2022/10/23 07:42:20;;;;;;;74.37;22.10;;;13.60;99.90;;;;;;5098977;28;20415;-85
2022/10/23 07:44:48;;;;;;;79.73;22.27;;;13.60;99.90;;;;;;5097299;28;20174;-85
2022/10/23 07:47:14;;;;;;;77.13;22.80;;;13.60;99.90;;;;;;5098307;28;20191;-85
2022/10/23 07:49:40;;;;;;;77.73;23.70;;;13.60;99.90;;;;;;5096853;28;20932;-85
2022/10/23 07:52:06;;;;;;;81.23;23.47;;;13.60;99.90;;;;;;5098021;28;20166;-86
2022/10/23 07:54:32;;;;;;;80.67;20.10;;;13.60;99.90;;;;;;5098339;28;20238;-85
2022/10/23 07:56:58;;;;;;;77.43;19.77;;;13.70;99.90;;;;;;5097261;28;20449;-85
2022/10/23 07:59:24;;;;;;;76.30;20.83;;;13.70;99.90;;;;;;5097194;28;20257;-85
2022/10/23 08:01:52;;;;;;;73.07;22.00;;;13.80;99.90;;;;;;5097201;28;20464;-85
2022/10/23 08:04:18;;;;;;;74.73;20.70;;;13.80;99.90;;;;;;5096120;28;20605;-85
2022/10/23 08:06:44;;;;;;;75.50;26.13;;;13.90;99.90;;;;;;5096156;28;20417;-85
2022/10/23 08:09:10;;;;;;;78.37;24.37;;;14.00;99.90;;;;;;5095064;28;20221;-85
2022/10/23 08:11:41;;;;;;;74.67;18.50;;;14.00;99.90;;;;;;5096899;28;20171;-85
2022/10/23 08:14:07;;;;;;;74.60;19.07;;;14.10;99.90;;;;;;5095492;28;20163;-85
2022/10/23 08:16:36;;;;;;;73.20;18.70;;;14.10;99.90;;;;;;5094480;28;20409;-86
2022/10/23 08:19:02;;;;;;;69.10;12.47;;;14.10;99.90;;;;;;5099135;28;20449;-85
2022/10/23 08:21:28;;;;;;;69.10;12.57;;;14.10;99.90;;;;;;5098685;28;20734;-85
2022/10/23 08:23:59;;;;;;;67.80;9.30;;;14.20;99.90;;;;;;5098969;28;20400;-85
2022/10/23 08:26:28;;;;;;;71.07;10.70;;;14.30;99.90;;;;;;5099014;28;20491;-86
2022/10/23 08:28:54;;;;;;;68.87;9.60;;;14.30;99.90;;;;;;5096837;28;20502;-86
2022/10/23 08:31:21;;;;;;;73.70;9.83;;;14.30;99.90;;;;;;5098516;28;20914;-86
2022/10/23 08:33:47;;;;;;;69.27;10.50;;;14.40;99.90;;;;;;5097849;28;20402;-85
2022/10/23 08:36:25;;;;;;;68.30;10.03;;;14.40;99.90;;;;;;5096646;28;20799;-85
2022/10/23 08:38:55;;;;;;;73.63;12.43;;;14.50;99.90;;;;;;5098036;28;20452;-85
2022/10/23 08:41:41;;;;;;;71.70;10.30;;;14.40;99.90;;;;;;5097136;28;20476;-86
2022/10/23 08:44:25;;;;;;;73.63;11.57;;;14.50;99.90;;;;;;5096988;28;20469;-86
2022/10/23 08:47:32;;;;;;;70.20;11.37;;;14.50;99.90;;;;;;5096892;28;20420;-86
2022/10/23 08:50:18;;;;;;;71.83;12.27;;;14.60;99.90;;;;;;5053054;28;20433;-85
2022/10/23 08:52:49;;;;;;;72.17;11.30;;;14.70;99.90;;;;;;5098367;28;20381;-85
2022/10/23 08:55:34;;;;;;;70.70;12.30;;;14.80;99.90;;;;;;5095790;28;20924;-85
2022/10/23 08:58:18;;;;;;;70.07;12.00;;;14.80;99.90;;;;;;5095849;28;20444;-85
2022/10/23 09:00:46;;;;;;;73.17;12.23;;;14.90;99.90;;;;;;5097364;28;20393;-85
2022/10/23 09:03:12;;;;;;;71.50;11.80;;;14.90;99.90;;;;;;5096352;28;20390;-85
2022/10/23 09:05:55;;;;;;;68.90;8.73;;;15.00;99.90;;;;;;5097846;28;20513;-85
2022/10/23 09:08:45;;;;;;;69.40;11.30;;;15.10;99.90;;;;;;5096242;28;20796;-85
2022/10/23 09:11:36;;;;;;;70.30;11.50;;;15.20;99.90;;;;;;5099041;28;20382;-86
2022/10/23 09:14:31;;;;;;;67.53;9.03;;;15.20;99.90;;;;;;5096314;28;20447;-86
2022/10/23 09:17:26;;;;;;;69.83;6.97;;;15.30;99.90;;;;;;5099731;28;20431;-85
2022/10/23 09:20:17;;;;;;;72.60;9.30;;;15.40;99.90;;;;;;5097541;28;20442;-85
2022/10/23 09:22:44;;;;;;;70.63;8.80;;;15.50;99.90;;;;;;5100664;28;20397;-85
2022/10/23 09:25:16;;;;;;;68.30;7.60;;;15.60;99.90;;;;;;5100442;28;20746;-86
2022/10/23 09:27:52;;;;;;;66.23;5.83;;;15.60;99.90;;;;;;5100314;28;20386;-86
2022/10/23 09:30:27;;;;;;;66.60;5.20;;;15.60;99.90;;;;;;5098222;28;20436;-86
2022/10/23 09:32:53;;;;;;;66.57;5.00;;;15.70;99.90;;;;;;5097794;28;20412;-86
2022/10/23 09:35:21;;;;;;;67.57;4.90;;;15.70;99.90;;;;;;5098962;28;20398;-86
2022/10/23 09:37:51;;;;;;;66.40;4.30;;;15.80;99.90;;;;;;5097518;28;20187;-86
2022/10/23 09:40:29;;;;;;;66.30;4.77;;;15.90;99.90;;;;;;5097251;28;20767;-86
2022/10/23 09:42:59;;;;;;;68.37;4.87;;;16.00;99.90;;;;;;5098249;28;20385;-86
2022/10/23 09:45:31;;;;;;;67.27;4.30;;;16.10;99.90;;;;;;5098082;28;20384;-86
2022/10/23 09:48:18;;;;;;;66.70;4.97;;;16.20;99.90;;;;;;5096557;28;20408;-85
2022/10/23 09:51:02;;;;;;;66.87;4.70;;;16.10;99.90;;;;;;5096406;28;20419;-85
2022/10/23 09:53:36;;;;;;;67.13;5.00;;;16.30;99.90;;;;;;5097610;28;20387;-85
2022/10/23 09:56:23;;;;;;;66.77;4.93;;;16.30;99.90;;;;;;5097973;28;20406;-85
2022/10/23 09:58:58;;;;;;;70.30;5.70;;;16.40;99.90;;;;;;5097293;28;20433;-85
2022/10/23 10:01:44;;;;;;;65.00;4.53;;;16.40;99.90;;;;;;5097594;28;20386;-86
2022/10/23 10:04:09;;;;;;;66.57;4.30;;;16.50;99.90;;;;;;5096206;28;20455;-86
2022/10/23 10:06:35;;;;;;;67.30;4.40;;;16.60;99.90;;;;;;5096148;28;20797;-85
2022/10/23 10:09:17;;;;;;;67.33;6.00;;;16.70;99.90;;;;;;5097291;28;20189;-86
2022/10/23 10:11:51;;;;;;;66.50;5.23;;;16.80;99.90;;;;;;5097581;28;20181;-85
2022/10/23 10:14:47;;;;;;;66.57;5.57;;;16.90;99.90;;;;;;5097625;28;20374;-86
2022/10/23 10:17:42;;;;;;;68.60;6.43;;;16.90;99.90;;;;;;5097328;28;20427;-85
2022/10/23 10:20:23;;;;;;;74.30;10.30;;;16.90;99.90;;;;;;5097370;28;20434;-85
2022/10/23 10:23:06;;;;;;;68.33;8.67;;;16.90;99.90;;;;;;5097852;28;20409;-85
2022/10/23 10:25:43;;;;;;;68.30;9.00;;;16.90;99.90;;;;;;5097316;28;20377;-85
2022/10/23 10:28:20;;;;;;;71.07;10.20;;;17.00;99.90;;;;;;5096051;28;20896;-85
2022/10/23 10:31:00;;;;;;;69.57;10.60;;;17.00;99.90;;;;;;5096575;28;20400;-85
2022/10/23 10:33:49;;;;;;;67.77;10.33;;;17.00;99.90;;;;;;5096143;28;20414;-85
2022/10/23 10:36:30;;;;;;;66.20;8.43;;;16.90;99.90;;;;;;5097505;28;20385;-86
2022/10/23 10:39:01;;;;;;;67.63;7.60;;;16.90;99.90;;;;;;5096142;28;20436;-85
2022/10/23 10:41:45;;;;;;;73.70;7.10;;;16.90;99.90;;;;;;5097236;28;20404;-85
2022/10/23 10:44:38;;;;;;;68.00;8.47;;;16.80;99.90;;;;;;5097266;28;20462;-85
2022/10/23 10:47:28;;;;;;;75.10;7.90;;;16.80;99.90;;;;;;5094700;28;20436;-85
2022/10/23 10:50:18;;;;;;;67.77;5.87;;;16.80;99.90;;;;;;5093517;28;20427;-85
2022/10/23 10:53:21;;;;;;;69.37;6.80;;;16.80;99.90;;;;;;5094924;28;20403;-85
2022/10/23 10:55:51;;;;;;;64.97;5.30;;;16.80;99.90;;;;;;5086010;28;20413;-85
2022/10/23 10:58:27;;;;;;;69.10;7.20;;;16.80;99.90;;;;;;5093825;28;20444;-85
2022/10/23 11:00:57;;;;;;;68.70;6.50;;;16.70;99.90;;;;;;5101525;28;20459;-86
2022/10/23 11:04:10;;;;;;;65.60;6.80;;;16.70;99.90;;;;;;5098794;28;20758;-86
2022/10/23 11:06:36;;;;;;;66.37;7.30;;;16.80;99.90;;;;;;5057058;28;20416;-86
2022/10/23 11:09:15;;;;;;;70.00;9.00;;;16.90;99.90;;;;;;5057036;28;20934;-86
2022/10/23 11:11:41;;;;;;;66.97;6.77;;;16.80;99.90;;;;;;5074818;28;20407;-86
2022/10/23 11:14:34;;;;;;;66.60;6.87;;;16.90;99.90;;;;;;5097006;28;20954;-86
2022/10/23 11:17:10;;;;;;;67.43;6.30;;;16.80;99.90;;;;;;5095202;28;20213;-85
2022/10/23 11:19:45;;;;;;;68.00;7.23;;;16.70;99.90;;;;;;5164120;22;20971;-85
2022/10/23 11:22:23;;;;;;;67.53;8.47;;;16.60;99.90;;;;;;5101746;28;20462;-85
2022/10/23 11:25:17;;;;;;;67.07;9.37;;;16.60;99.90;;;;;;5102750;28;20381;-84
2022/10/23 11:28:00;;;;;;;70.63;10.53;;;16.50;99.90;;;;;;5101512;28;20398;-84
2022/10/23 11:30:34;;;;;;;67.77;8.07;;;16.40;99.90;;;;;;5077540;28;20491;-84
2022/10/23 11:32:59;;;;;;;65.37;7.53;;;16.50;99.90;;;;;;5077177;28;20411;-84
2022/10/23 11:36:03;;;;;;;68.50;6.67;;;16.60;99.90;;;;;;5078377;28;20469;-84
2022/10/23 11:38:34;;;;;;;68.20;11.50;;;16.60;99.90;;;;;;5078875;28;20197;-84
2022/10/23 11:41:15;;;;;;;69.20;12.50;;;16.70;99.90;;;;;;5078942;28;20434;-84
2022/10/23 11:44:39;;;;;;;70.27;11.93;;;16.80;99.90;;;;;;5078494;28;20439;-84
2022/10/23 11:47:24;;;;;;;68.27;12.57;;;17.00;99.90;;;;;;5016619;28;20900;-84
2022/10/23 11:49:50;;;;;;;68.40;9.90;;;17.10;99.90;;;;;;5076571;28;20828;-83
2022/10/23 11:52:23;;;;;;;69.47;9.50;;;17.30;99.90;;;;;;5077744;28;20403;-84
2022/10/23 11:55:04;;;;;;;66.20;6.77;;;17.40;99.90;;;;;;5079151;28;20525;-83
2022/10/23 11:57:29;;;;;;;68.70;5.70;;;17.50;99.90;;;;;;5080485;28;20441;-83
2022/10/23 11:59:56;;;;;;;66.17;7.40;;;17.60;99.90;;;;;;5081924;28;20423;-84
2022/10/23 12:02:31;;;;;;;67.47;11.07;;;17.70;99.90;;;;;;5080092;28;20182;-83
2022/10/23 12:05:18;;;;;;;72.20;12.67;;;17.70;99.90;;;;;;5080358;28;20420;-83
2022/10/23 12:07:44;;;;;;;68.10;13.47;;;17.80;99.90;;;;;;5080551;28;20504;-83
2022/10/23 12:10:26;;;;;;;74.70;17.53;;;17.90;99.90;;;;;;5081549;28;20481;-84
2022/10/23 12:12:57;;;;;;;71.47;14.40;;;17.80;99.90;;;;;;5081529;28;20386;-83
2022/10/23 12:15:24;;;;;;;69.60;14.00;;;17.80;99.90;;;;;;5081402;28;20409;-83
2022/10/23 12:17:53;;;;;;;68.93;14.70;;;17.80;99.90;;;;;;5080494;28;20441;-84
2022/10/23 12:20:29;;;;;;;68.70;14.93;;;17.80;99.90;;;;;;5081852;28;20495;-84
2022/10/23 12:23:01;;;;;;;69.17;15.77;;;17.90;99.90;;;;;;5081914;28;20473;-84
2022/10/23 12:25:53;;;;;;;76.37;17.77;;;17.90;99.90;;;;;;5082410;28;20402;-84
2022/10/23 12:28:53;;;;;;;73.03;17.47;;;18.00;99.90;;;;;;5081163;28;20418;-83
2022/10/23 12:31:33;;;;;;;69.60;17.40;;;18.00;99.90;;;;;;5080618;28;20393;-83
2022/10/23 12:34:22;;;;;;;72.80;17.97;;;18.00;99.90;;;;;;5081347;28;20412;-83
2022/10/23 12:37:05;;;;;;;70.73;18.90;;;18.00;99.90;;;;;;5080915;28;20863;-84
2022/10/23 12:39:32;;;;;;;72.27;22.50;;;18.10;99.90;;;;;;5079390;28;20432;-83
2022/10/23 12:41:59;;;;;;;74.57;22.77;;;18.10;99.90;;;;;;5080647;28;20398;-83
2022/10/23 12:44:26;;;;;;;77.73;25.53;;;18.10;99.90;;;;;;5080183;28;20520;-83
2022/10/23 12:47:00;;;;;;;71.00;22.40;;;18.20;99.90;;;;;;5081845;28;20413;-83
2022/10/23 12:49:30;;;;;;;77.03;24.60;;;18.10;99.90;;;;;;5080991;28;20417;-83
2022/10/23 12:52:02;;;;;;;72.13;18.20;;;18.00;99.90;;;;;;5080455;28;20466;-83
2022/10/23 12:54:31;;;;;;;71.37;17.13;;;17.90;99.90;;;;;;5078887;28;20411;-83
2022/10/23 12:56:56;;;;;;;76.17;18.07;;;17.90;99.90;;;;;;5080140;28;20456;-83